Time;durP1;ratioP1;P1;durP2;ratioP2;P2;SDS_P1;SDS_P2;PMS_P1;PMS_P2;Temp;Humidity;BMP_temperature;BMP_pressure;BME280_temperature;BME280_humidity;BME280_pressure;Samples;Min_cycle;Max_cycle;Signal;HPM_P1;HPM_P2
2022/06/21 00:02:09;;;;;;;1.48;0.85;;;23.90;57.20;;;;;;6279404;28;20043;-47
2022/06/21 00:05:17;;;;;;;1.30;0.90;;;23.90;57.10;;;;;;6284922;28;20043;-46
2022/06/21 00:08:23;;;;;;;1.70;0.60;;;23.90;57.10;;;;;;6278107;28;20056;-50
2022/06/21 00:11:27;;;;;;;3.25;1.13;;;23.80;57.00;;;;;;6262265;28;20887;-46
2022/06/21 00:14:29;;;;;;;2.28;1.00;;;23.90;57.10;;;;;;6278811;28;20052;-46
2022/06/21 00:17:30;;;;;;;2.03;0.98;;;23.80;57.00;;;;;;6281592;28;20039;-49
2022/06/21 00:20:32;;;;;;;2.58;1.20;;;23.90;57.00;;;;;;6283498;28;20036;-47
2022/06/21 00:23:34;;;;;;;2.22;1.50;;;23.90;56.90;;;;;;6281599;28;20051;-50
2022/06/21 00:26:36;;;;;;;2.58;1.30;;;23.90;56.90;;;;;;6283567;28;20051;-47
2022/06/21 00:29:37;;;;;;;4.72;1.90;;;23.90;56.90;;;;;;6277866;28;20155;-49
2022/06/21 00:32:39;;;;;;;3.17;1.48;;;23.90;56.90;;;;;;6281143;28;21287;-46
2022/06/21 00:35:42;;;;;;;5.85;1.70;;;23.90;56.90;;;;;;6284534;28;20040;-47
2022/06/21 00:38:45;;;;;;;6.38;2.20;;;23.80;56.90;;;;;;6280489;28;20048;-49
2022/06/21 00:41:50;;;;;;;5.88;1.60;;;23.90;57.00;;;;;;6280651;28;20152;-49
2022/06/21 00:45:02;;;;;;;5.00;1.70;;;23.70;56.90;;;;;;6262938;28;20048;-48
2022/06/21 00:48:13;;;;;;;8.35;2.13;;;23.80;57.10;;;;;;6274220;28;20938;-50
2022/06/21 00:51:22;;;;;;;5.97;2.10;;;23.70;57.20;;;;;;6278559;28;20075;-49
2022/06/21 00:54:30;;;;;;;9.35;2.22;;;23.70;57.40;;;;;;6280204;28;20038;-49
2022/06/21 00:57:44;;;;;;;4.22;1.83;;;23.60;57.40;;;;;;6268124;28;20048;-50
2022/06/21 01:00:54;;;;;;;6.78;2.25;;;23.60;57.50;;;;;;6300530;28;20071;-48
2022/06/21 01:04:01;;;;;;;7.43;2.10;;;23.50;57.50;;;;;;6277905;28;20086;-49
2022/06/21 01:07:07;;;;;;;5.65;1.73;;;23.50;57.50;;;;;;6275024;28;20154;-46
2022/06/21 01:10:13;;;;;;;6.45;1.92;;;23.50;57.60;;;;;;6275333;28;20460;-44
2022/06/21 01:13:20;;;;;;;4.70;2.10;;;23.50;57.70;;;;;;6270403;28;20402;-50
2022/06/21 01:16:25;;;;;;;4.63;2.15;;;23.40;57.80;;;;;;6268472;28;20287;-45
2022/06/21 01:19:37;;;;;;;5.55;1.70;;;23.30;57.80;;;;;;6268961;28;20312;-49
2022/06/21 01:22:43;;;;;;;;;;;23.40;57.90;;;;;;6268039;28;20444;-47
2022/06/21 01:25:53;;;;;;;8.35;2.28;;;23.50;58.00;;;;;;6266005;28;20471;-48
2022/06/21 01:28:56;;;;;;;4.05;1.85;;;23.30;57.80;;;;;;6266275;28;20445;-45
2022/06/21 01:32:00;;;;;;;3.13;1.70;;;23.40;57.90;;;;;;6268378;28;20047;-46
2022/06/21 01:35:11;;;;;;;8.68;2.20;;;23.30;58.00;;;;;;6265476;28;20040;-45
2022/06/21 01:38:17;;;;;;;5.45;2.00;;;23.30;58.00;;;;;;6266660;28;20032;-45
2022/06/21 01:41:22;;;;;;;5.80;2.17;;;23.30;58.00;;;;;;6266005;28;20387;-46
2022/06/21 01:44:29;;;;;;;6.30;2.17;;;23.30;58.00;;;;;;6266139;28;21013;-49
2022/06/21 01:47:39;;;;;;;6.00;2.38;;;23.30;58.00;;;;;;6265259;28;20092;-48
2022/06/21 01:50:44;;;;;;;5.78;2.28;;;23.30;58.10;;;;;;6265159;28;20253;-48
2022/06/21 01:53:46;;;;;;;5.70;1.73;;;23.20;58.00;;;;;;6264187;28;20047;-47
2022/06/21 01:56:48;;;;;;;5.78;2.10;;;23.30;58.10;;;;;;6265522;28;20654;-47
2022/06/21 01:59:52;;;;;;;5.75;2.30;;;23.20;58.00;;;;;;6266807;28;20151;-47
2022/06/21 02:02:58;;;;;;;4.43;1.70;;;23.30;58.20;;;;;;6268817;28;20648;-48
2022/06/21 02:06:03;;;;;;;2.47;1.15;;;23.20;58.10;;;;;;6265984;28;20044;-47
2022/06/21 02:09:08;;;;;;;2.50;1.33;;;23.30;58.10;;;;;;6267307;28;20200;-45
2022/06/21 02:12:12;;;;;;;1.75;1.05;;;23.20;58.00;;;;;;6266272;28;20303;-47
2022/06/21 02:15:24;;;;;;;2.20;1.35;;;23.30;57.90;;;;;;6255127;28;20043;-49
2022/06/21 02:18:29;;;;;;;1.35;1.08;;;23.40;57.80;;;;;;6270748;28;20071;-50
2022/06/21 02:21:38;;;;;;;1.98;1.10;;;23.40;57.70;;;;;;6266784;28;20307;-49
2022/06/21 02:24:41;;;;;;;1.33;0.90;;;23.50;57.70;;;;;;6261894;28;20752;-46
2022/06/21 02:27:43;;;;;;;1.10;0.65;;;23.50;57.60;;;;;;6268974;28;20052;-51
2022/06/21 02:30:46;;;;;;;0.93;0.77;;;23.60;57.50;;;;;;6278341;28;20068;-51
2022/06/21 02:33:50;;;;;;;1.02;0.77;;;23.50;57.40;;;;;;6271133;28;20181;-47
2022/06/21 02:36:55;;;;;;;0.93;0.63;;;23.60;57.40;;;;;;6273059;28;20793;-46
2022/06/21 02:40:01;;;;;;;1.70;0.90;;;23.60;57.30;;;;;;6273913;28;20304;-47
2022/06/21 02:43:08;;;;;;;0.95;0.70;;;23.60;57.30;;;;;;6271480;28;20326;-45
2022/06/21 02:46:14;;;;;;;3.15;1.60;;;23.60;57.30;;;;;;6269179;28;21447;-48
2022/06/21 02:49:20;;;;;;;6.95;2.00;;;23.70;57.30;;;;;;6271446;28;20100;-51
2022/06/21 02:52:25;;;;;;;4.85;1.42;;;23.60;57.40;;;;;;6269482;28;20357;-48
2022/06/21 02:55:36;;;;;;;3.10;1.50;;;23.60;57.50;;;;;;6270201;28;20075;-49
2022/06/21 02:58:40;;;;;;;3.90;1.52;;;23.50;57.60;;;;;;6270456;28;20111;-47
2022/06/21 03:01:46;;;;;;;3.53;1.55;;;23.50;57.70;;;;;;6270760;28;20044;-48
2022/06/21 03:04:51;;;;;;;4.82;1.83;;;23.40;57.80;;;;;;6266229;28;20578;-45
2022/06/21 03:07:57;;;;;;;3.60;1.83;;;23.50;57.90;;;;;;6268946;28;20040;-50
2022/06/21 03:11:00;;;;;;;3.45;1.70;;;23.30;57.90;;;;;;6265578;28;20047;-46
2022/06/21 03:14:05;;;;;;;6.32;2.00;;;23.40;58.00;;;;;;6270414;28;20706;-52
2022/06/21 03:17:09;;;;;;;7.05;2.28;;;23.40;58.00;;;;;;6268847;28;20706;-49
2022/06/21 03:20:14;;;;;;;6.50;2.05;;;23.30;57.90;;;;;;6270521;28;20329;-46
2022/06/21 03:23:17;;;;;;;2.70;1.60;;;23.30;58.00;;;;;;6269395;28;20142;-49
2022/06/21 03:26:19;;;;;;;4.20;1.50;;;23.30;58.00;;;;;;6268327;28;20040;-49
2022/06/21 03:29:20;;;;;;;4.82;1.60;;;23.30;58.00;;;;;;6270014;28;20052;-49
2022/06/21 03:32:24;;;;;;;4.65;1.85;;;23.30;58.00;;;;;;6268955;28;20519;-47
2022/06/21 03:35:30;;;;;;;3.75;1.70;;;23.40;58.00;;;;;;6269814;28;20386;-46
2022/06/21 03:38:32;;;;;;;4.45;1.80;;;23.40;57.90;;;;;;6268856;28;20381;-47
2022/06/21 03:44:54;;;;;;;4.38;1.80;;;23.30;57.90;;;;;;6265812;28;20176;-46
2022/06/21 03:48:01;;;;;;;3.60;1.75;;;23.30;57.90;;;;;;6280000;28;20040;-45
2022/06/21 03:51:08;;;;;;;4.95;2.00;;;23.30;57.90;;;;;;6279835;28;20048;-47
2022/06/21 03:54:14;;;;;;;3.35;1.88;;;23.30;57.80;;;;;;6279016;28;20066;-45
2022/06/21 03:57:20;;;;;;;4.78;1.90;;;23.30;57.80;;;;;;6263555;28;20067;-45
2022/06/21 04:00:23;;;;;;;6.35;2.25;;;23.30;57.80;;;;;;6265336;28;20346;-47
2022/06/21 04:03:28;;;;;;;6.60;2.50;;;23.40;57.80;;;;;;6267687;28;20044;-47
2022/06/21 04:06:36;;;;;;;5.00;1.48;;;23.60;57.90;;;;;;6264479;28;20930;-49
2022/06/21 04:09:42;;;;;;;3.25;1.45;;;23.20;57.80;;;;;;6261052;28;20055;-47
2022/06/21 04:12:50;;;;;;;5.25;1.90;;;23.20;57.80;;;;;;6269865;28;20362;-49
2022/06/21 04:15:57;;;;;;;4.68;2.00;;;23.30;57.80;;;;;;6269137;28;20044;-47
2022/06/21 04:19:03;;;;;;;5.72;1.85;;;23.30;57.80;;;;;;6264371;28;20040;-49
2022/06/21 04:22:13;;;;;;;5.05;1.60;;;23.30;57.80;;;;;;6267220;28;20437;-46
2022/06/21 04:25:20;;;;;;;3.88;1.60;;;23.30;57.80;;;;;;6266962;28;20060;-46
2022/06/21 04:28:25;;;;;;;4.93;2.05;;;23.20;57.70;;;;;;6269399;28;20155;-45
2022/06/21 04:31:31;;;;;;;5.18;1.90;;;23.20;57.70;;;;;;6270194;28;20094;-51
2022/06/21 04:34:41;;;;;;;4.32;1.73;;;23.20;57.70;;;;;;6254060;28;20048;-50
2022/06/21 04:37:47;;;;;;;3.95;1.90;;;23.20;57.70;;;;;;6271008;28;20042;-46
2022/06/21 04:40:56;;;;;;;6.75;2.13;;;23.30;57.80;;;;;;6265695;28;20497;-47
2022/06/21 04:44:03;;;;;;;4.47;2.15;;;23.20;57.70;;;;;;6268414;28;20511;-45
2022/06/21 04:47:12;;;;;;;3.08;1.80;;;23.10;57.70;;;;;;6268941;28;20955;-47
2022/06/21 04:50:21;;;;;;;4.18;2.00;;;23.20;57.80;;;;;;6269066;28;20116;-45
2022/06/21 04:53:31;;;;;;;4.38;2.17;;;23.10;57.80;;;;;;6266133;28;20052;-45
2022/06/21 04:56:40;;;;;;;4.88;2.25;;;23.20;57.80;;;;;;6259004;28;20068;-47
2022/06/21 04:59:45;;;;;;;5.85;2.33;;;23.20;57.80;;;;;;6277146;28;20057;-46
2022/06/21 05:02:52;;;;;;;4.93;1.90;;;23.10;57.70;;;;;;6274609;28;20440;-48
2022/06/21 05:05:54;;;;;;;5.55;2.28;;;23.10;57.80;;;;;;6262626;28;20062;-51
2022/06/21 05:08:56;;;;;;;5.30;2.10;;;23.20;57.90;;;;;;6258877;28;20046;-47
2022/06/21 05:12:10;;;;;;;5.13;2.08;;;23.00;57.80;;;;;;6264033;28;20134;-49
2022/06/21 05:15:18;;;;;;;2.97;1.63;;;23.10;57.90;;;;;;6267009;28;20310;-49
2022/06/21 05:18:24;;;;;;;3.28;1.90;;;23.10;57.80;;;;;;6263994;28;20252;-49
2022/06/21 05:21:32;;;;;;;7.07;2.22;;;23.10;57.80;;;;;;6277195;28;20155;-49
2022/06/21 05:24:34;;;;;;;4.07;1.73;;;23.10;57.80;;;;;;6286665;28;20485;-47
2022/06/21 05:27:41;;;;;;;5.75;2.20;;;23.20;57.90;;;;;;6277276;28;20055;-46
2022/06/21 05:30:47;;;;;;;5.22;2.13;;;22.90;57.80;;;;;;6258432;28;20044;-48
2022/06/21 05:33:52;;;;;;;4.63;2.22;;;23.00;57.80;;;;;;6256612;28;20172;-48
2022/06/21 05:37:01;;;;;;;4.63;2.10;;;23.00;57.70;;;;;;6276263;28;20056;-45
2022/06/21 05:40:12;;;;;;;3.78;1.77;;;23.10;57.80;;;;;;6266388;28;20956;-48
2022/06/21 05:43:17;;;;;;;3.92;1.35;;;23.10;57.70;;;;;;6266382;28;20136;-48
2022/06/21 05:46:24;;;;;;;3.72;1.45;;;23.10;57.70;;;;;;6271092;28;20989;-45
2022/06/21 05:49:29;;;;;;;3.72;1.75;;;23.10;57.60;;;;;;6267540;28;20397;-48
2022/06/21 05:52:36;;;;;;;3.72;1.60;;;23.20;57.70;;;;;;6257686;28;20442;-45
2022/06/21 05:55:41;;;;;;;3.80;1.85;;;23.10;57.50;;;;;;6265291;28;20146;-48
2022/06/21 05:58:46;;;;;;;5.90;1.80;;;23.10;57.50;;;;;;6272888;27;20082;-49
2022/06/21 06:01:53;;;;;;;3.60;1.83;;;23.10;57.50;;;;;;6273026;28;20147;-50
2022/06/21 06:05:03;;;;;;;4.30;1.58;;;23.10;57.50;;;;;;6262244;28;20107;-47
2022/06/21 06:08:11;;;;;;;6.68;1.70;;;23.10;57.50;;;;;;6276054;28;20495;-47
2022/06/21 06:11:18;;;;;;;4.53;1.80;;;23.20;57.60;;;;;;6278412;28;21234;-46
2022/06/21 06:14:22;;;;;;;3.63;1.83;;;23.10;57.50;;;;;;6268885;27;20154;-47
2022/06/21 06:17:34;;;;;;;3.35;1.33;;;23.00;57.50;;;;;;6267006;28;20151;-45
2022/06/21 06:20:40;;;;;;;4.03;1.90;;;23.20;57.60;;;;;;6271155;27;21152;-50
2022/06/21 06:23:49;;;;;;;5.22;1.60;;;23.20;57.60;;;;;;6262213;28;21035;-49
2022/06/21 06:26:55;;;;;;;3.75;1.67;;;23.10;57.50;;;;;;6259680;27;20124;-50
2022/06/21 06:30:02;;;;;;;4.55;2.00;;;23.30;57.50;;;;;;6261020;27;20170;-45
2022/06/21 06:33:14;;;;;;;5.18;1.95;;;23.20;57.50;;;;;;6259005;27;20043;-49
2022/06/21 06:36:20;;;;;;;3.60;2.08;;;23.30;57.60;;;;;;6249022;27;20036;-48
2022/06/21 06:39:25;;;;;;;2.92;1.77;;;23.30;57.60;;;;;;6247898;27;20178;-47
2022/06/21 06:42:30;;;;;;;5.07;2.03;;;23.30;57.60;;;;;;6211213;27;20192;-48
2022/06/21 06:45:35;;;;;;;4.97;1.60;;;23.30;57.60;;;;;;6216364;27;21433;-46
2022/06/21 06:48:39;;;;;;;2.30;1.73;;;23.30;57.70;;;;;;6192996;28;22807;-49
2022/06/21 06:51:49;;;;;;;3.63;1.70;;;23.40;57.70;;;;;;6187534;28;20055;-50
2022/06/21 06:54:57;;;;;;;3.00;1.50;;;23.50;57.60;;;;;;6187940;28;20044;-46
2022/06/21 06:58:02;;;;;;;5.05;2.40;;;23.50;57.60;;;;;;6179349;28;20036;-48
2022/06/21 07:01:09;;;;;;;4.88;2.00;;;23.50;57.50;;;;;;6127880;28;21140;-45
2022/06/21 07:04:19;;;;;;;6.22;1.95;;;23.60;57.40;;;;;;6114610;28;20121;-51
2022/06/21 07:07:28;;;;;;;4.15;1.80;;;23.50;57.20;;;;;;6130789;28;20052;-45
2022/06/21 07:10:30;;;;;;;5.65;2.00;;;23.60;57.10;;;;;;6137549;28;20153;-48
2022/06/21 07:13:33;;;;;;;3.15;1.67;;;23.50;56.90;;;;;;6116854;28;20047;-48
2022/06/21 07:16:36;;;;;;;5.90;1.75;;;23.70;56.80;;;;;;6135438;28;20085;-48
2022/06/21 07:19:38;;;;;;;5.10;2.13;;;23.70;56.80;;;;;;6122640;28;20047;-46
2022/06/21 07:22:40;;;;;;;4.82;1.67;;;23.70;56.70;;;;;;6127867;28;20055;-50
2022/06/21 07:25:45;;;;;;;5.20;1.80;;;23.70;56.60;;;;;;6097765;28;20163;-47
2022/06/21 07:28:51;;;;;;;4.70;2.00;;;23.60;56.50;;;;;;6088298;28;20087;-50
2022/06/21 07:31:57;;;;;;;5.40;1.80;;;23.80;56.60;;;;;;6091252;28;20133;-52
2022/06/21 07:35:06;;;;;;;6.28;1.77;;;23.80;56.60;;;;;;6079145;28;20340;-49
2022/06/21 07:38:14;;;;;;;4.50;1.60;;;23.80;56.60;;;;;;6080321;28;22083;-51
2022/06/21 07:41:23;;;;;;;4.32;1.70;;;23.90;56.60;;;;;;6051832;28;21372;-51
2022/06/21 07:44:29;;;;;;;3.25;1.73;;;23.90;56.60;;;;;;6039336;28;20054;-54
2022/06/21 07:47:38;;;;;;;4.85;1.48;;;24.00;56.50;;;;;;6042137;28;21800;-54
2022/06/21 07:50:43;;;;;;;4.07;2.03;;;24.00;56.30;;;;;;6030031;28;20047;-54
2022/06/21 07:53:50;;;;;;;4.70;1.75;;;24.00;56.30;;;;;;6030999;28;20047;-54
2022/06/21 07:56:57;;;;;;;2.70;1.55;;;24.00;56.20;;;;;;6051919;28;20594;-52
2022/06/21 08:00:05;;;;;;;1.98;1.17;;;24.00;56.20;;;;;;6025159;28;20065;-53
2022/06/21 08:09:53;;;;;;;0.70;0.60;;;24.00;55.90;;;;;;6024266;28;20048;-52
2022/06/21 08:12:56;;;;;;;1.35;0.75;;;24.10;56.60;;;;;;6057023;28;20136;-50
2022/06/21 08:16:05;;;;;;;1.83;1.00;;;24.20;55.90;;;;;;6038001;28;23522;-54
2022/06/21 08:19:12;;;;;;;5.18;1.75;;;24.20;55.90;;;;;;6048735;28;21311;-52
2022/06/21 08:22:19;;;;;;;3.35;1.88;;;24.20;56.50;;;;;;6046830;27;20047;-53
2022/06/21 08:25:30;;;;;;;2.90;1.45;;;24.30;55.70;;;;;;6057876;28;20040;-52
2022/06/21 08:28:43;;;;;;;3.58;1.80;;;24.30;55.70;;;;;;6060879;28;20049;-52
2022/06/21 08:31:50;;;;;;;3.63;1.73;;;24.30;56.20;;;;;;6040887;28;20132;-53
2022/06/21 08:34:56;;;;;;;4.50;2.10;;;24.20;55.50;;;;;;6012105;28;20043;-52
2022/06/21 08:38:05;;;;;;;3.38;1.65;;;24.30;55.60;;;;;;6021919;28;20079;-52
2022/06/21 08:48:56;;;;;;;3.05;1.40;;;24.30;55.70;;;;;;6045737;28;20047;-53
2022/06/21 08:52:15;;;;;;;4.72;2.40;;;24.40;55.80;;;;;;6063181;27;20042;-52
2022/06/21 08:55:24;;;;;;;4.32;2.28;;;24.30;56.40;;;;;;6040531;28;20178;-53
2022/06/21 08:58:40;;;;;;;2.88;1.80;;;24.40;55.90;;;;;;6047265;28;21786;-54
2022/06/21 09:01:49;;;;;;;3.45;1.90;;;24.40;55.90;;;;;;6024569;28;20051;-52
2022/06/21 09:05:02;;;;;;;4.63;2.28;;;24.50;56.00;;;;;;6008977;28;20075;-52
2022/06/21 09:08:20;;;;;;;5.85;2.17;;;24.50;56.10;;;;;;5994514;28;20049;-51
2022/06/21 09:11:30;;;;;;;4.38;1.85;;;24.40;56.10;;;;;;6031848;28;20082;-51
2022/06/21 09:14:48;;;;;;;5.05;2.25;;;24.50;56.20;;;;;;6016601;28;20236;-50
2022/06/21 09:18:56;;;;;;;3.47;1.55;;;24.40;56.20;;;;;;6026791;28;20060;-53
2022/06/21 09:22:09;;;;;;;3.00;1.40;;;24.40;56.20;;;;;;6040420;28;20059;-52
2022/06/21 09:25:17;;;;;;;2.00;1.30;;;24.40;56.20;;;;;;6036956;28;20047;-53
2022/06/21 09:28:30;;;;;;;1.52;1.08;;;24.50;56.20;;;;;;6046475;28;20123;-53
2022/06/21 09:31:39;;;;;;;2.47;1.40;;;24.70;56.40;;;;;;6053888;28;20145;-55
2022/06/21 09:34:52;;;;;;;3.38;1.63;;;24.50;56.30;;;;;;6054115;28;20048;-52
2022/06/21 09:38:06;;;;;;;2.38;1.58;;;24.60;56.40;;;;;;6050786;28;20051;-53
2022/06/21 09:41:20;;;;;;;1.35;1.23;;;24.60;56.50;;;;;;6017184;28;20047;-51
2022/06/21 09:44:28;;;;;;;2.75;1.20;;;24.70;56.60;;;;;;6041188;28;20048;-53
2022/06/21 09:47:41;;;;;;;2.50;1.27;;;24.60;56.50;;;;;;6046489;28;20444;-53
2022/06/21 09:50:59;;;;;;;3.63;1.60;;;24.70;56.50;;;;;;6062517;28;22625;-53
2022/06/21 09:54:13;;;;;;;3.25;1.70;;;24.70;56.50;;;;;;6048118;27;21089;-51
2022/06/21 09:57:25;;;;;;;1.73;1.30;;;24.60;56.40;;;;;;6054722;28;20170;-52
2022/06/21 10:00:37;;;;;;;3.40;1.65;;;24.70;56.50;;;;;;6025636;28;20178;-53
2022/06/21 10:04:18;;;;;;;3.13;1.50;;;24.70;56.50;;;;;;6018837;28;20044;-53
2022/06/21 10:07:33;;;;;;;6.03;1.92;;;24.70;56.50;;;;;;6041400;28;20048;-50
2022/06/21 10:10:55;;;;;;;3.15;1.45;;;24.80;56.70;;;;;;6062415;28;21624;-53
2022/06/21 10:14:23;;;;;;;3.30;1.40;;;24.80;56.70;;;;;;6070744;28;20047;-55
2022/06/21 10:17:46;;;;;;;3.30;1.55;;;24.80;56.70;;;;;;6058463;28;20175;-52
2022/06/21 10:21:00;;;;;;;1.23;1.10;;;24.70;56.80;;;;;;6059033;28;20043;-55
2022/06/21 10:24:22;;;;;;;2.25;1.27;;;24.80;56.70;;;;;;6086488;28;20051;-55
2022/06/21 10:27:53;;;;;;;1.55;1.00;;;24.80;56.80;;;;;;6118796;28;20158;-55
2022/06/21 10:31:20;;;;;;;1.52;1.05;;;24.80;56.70;;;;;;6115245;28;20107;-54
2022/06/21 10:34:48;;;;;;;1.27;1.00;;;24.90;56.70;;;;;;6154554;28;20044;-54
2022/06/21 10:38:08;;;;;;;1.50;0.85;;;24.90;56.80;;;;;;6163863;28;20075;-55
2022/06/21 10:41:25;;;;;;;0.80;0.80;;;24.90;56.90;;;;;;6182674;28;20054;-50
2022/06/21 10:44:42;;;;;;;1.83;1.05;;;24.90;56.90;;;;;;6182637;28;20159;-55
2022/06/21 10:48:04;;;;;;;1.10;0.80;;;24.90;56.90;;;;;;6191141;28;20093;-51
2022/06/21 10:51:14;;;;;;;1.88;1.00;;;25.00;57.00;;;;;;6190616;28;20040;-55
2022/06/21 10:54:26;;;;;;;0.80;0.80;;;24.90;56.90;;;;;;6188861;28;20129;-54
2022/06/21 10:57:42;;;;;;;0.85;0.73;;;24.90;56.90;;;;;;6188972;28;21684;-52
2022/06/21 11:04:31;;;;;;;1.10;0.80;;;24.80;56.90;;;;;;6193074;28;20051;-54
2022/06/21 11:07:43;;;;;;;1.17;1.05;;;24.90;57.00;;;;;;6188403;28;20055;-50
2022/06/21 11:10:50;;;;;;;1.00;0.90;;;24.90;57.10;;;;;;6183843;28;20043;-52
2022/06/21 11:14:07;;;;;;;1.00;0.80;;;24.90;57.60;;;;;;6184172;28;21015;-53
2022/06/21 11:17:18;;;;;;;0.80;0.63;;;24.90;57.00;;;;;;6187800;28;20040;-53
2022/06/21 11:20:29;;;;;;;1.30;0.90;;;24.90;57.10;;;;;;6173462;28;20043;-51
2022/06/21 11:23:41;;;;;;;1.67;1.00;;;24.90;57.10;;;;;;6158129;28;20167;-52
2022/06/21 11:26:53;;;;;;;0.80;0.80;;;24.90;57.20;;;;;;6152189;28;21907;-54
2022/06/21 11:30:01;;;;;;;1.95;0.70;;;24.90;57.80;;;;;;6162367;28;21103;-53
2022/06/21 11:33:10;;;;;;;0.68;0.68;;;24.90;57.30;;;;;;6146410;28;20082;-51
2022/06/21 11:36:19;;;;;;;0.85;0.70;;;24.90;57.40;;;;;;6083792;28;20072;-49
2022/06/21 11:39:33;;;;;;;0.90;0.70;;;24.80;57.30;;;;;;6137156;28;20173;-52
2022/06/21 11:42:50;;;;;;;0.82;0.80;;;24.90;57.40;;;;;;6137826;28;21280;-50
2022/06/21 11:46:03;;;;;;;1.27;0.80;;;24.90;57.50;;;;;;6113362;28;20059;-54
2022/06/21 11:49:28;;;;;;;0.70;0.70;;;24.90;57.60;;;;;;6097893;28;20132;-54
2022/06/21 11:52:51;;;;;;;;;;;24.90;57.80;;;;;;6088030;28;20147;-48
2022/06/21 11:55:57;;;;;;;0.77;0.70;;;24.90;57.80;;;;;;6089040;28;20020;-53
2022/06/21 11:59:05;;;;;;;0.70;0.68;;;24.90;57.80;;;;;;6079639;28;20054;-49
2022/06/21 12:02:16;;;;;;;0.60;0.57;;;24.90;57.90;;;;;;6011513;28;21321;-49
2022/06/21 12:05:25;;;;;;;;;;;24.90;58.10;;;;;;6044397;28;20284;-47
2022/06/21 12:08:32;;;;;;;0.63;0.50;;;24.90;58.10;;;;;;6026349;28;20287;-49
2022/06/21 12:11:43;;;;;;;0.95;0.70;;;24.90;58.10;;;;;;6053447;28;21784;-49
2022/06/21 12:14:56;;;;;;;0.80;0.75;;;25.00;58.40;;;;;;6067994;28;20252;-49
2022/06/21 12:18:01;;;;;;;1.08;0.70;;;24.90;58.40;;;;;;6039054;28;20091;-49
2022/06/21 12:21:06;;;;;;;0.60;0.60;;;24.90;58.60;;;;;;6058118;28;20047;-50
2022/06/21 12:24:14;;;;;;;0.80;0.60;;;24.90;58.40;;;;;;6066022;28;20044;-52
2022/06/21 12:27:17;;;;;;;1.00;0.90;;;24.80;58.40;;;;;;6038616;28;20059;-46
2022/06/21 12:30:22;;;;;;;0.55;0.50;;;24.90;58.50;;;;;;6014840;28;20043;-49
2022/06/21 12:33:28;;;;;;;0.60;0.60;;;25.00;58.60;;;;;;5985393;28;24758;-53
2022/06/21 12:36:39;;;;;;;0.75;0.70;;;24.90;58.60;;;;;;6002135;28;20050;-52
2022/06/21 12:39:54;;;;;;;0.60;0.60;;;25.30;58.70;;;;;;6019339;28;20040;-49
2022/06/21 12:43:09;;;;;;;0.80;0.65;;;25.00;58.50;;;;;;6030607;28;20040;-48
2022/06/21 12:46:19;;;;;;;0.73;0.73;;;25.10;58.60;;;;;;6025410;28;20209;-52
2022/06/21 12:50:03;;;;;;;1.38;0.73;;;25.10;58.50;;;;;;6035687;28;20043;-50
2022/06/21 12:53:23;;;;;;;0.50;0.50;;;25.10;58.50;;;;;;6059845;28;20133;-52
2022/06/21 12:56:39;;;;;;;0.93;0.77;;;25.20;58.50;;;;;;6040963;28;20075;-51
2022/06/21 12:59:55;;;;;;;2.65;0.70;;;25.10;58.40;;;;;;6011207;28;22177;-53
2022/06/21 13:03:11;;;;;;;0.80;0.60;;;25.10;58.30;;;;;;6002675;28;20090;-51
2022/06/21 13:06:31;;;;;;;0.90;0.70;;;25.20;58.70;;;;;;6016810;28;20144;-53
2022/06/21 13:09:47;;;;;;;1.00;0.60;;;25.30;58.40;;;;;;6017947;28;20958;-53
2022/06/21 13:13:15;;;;;;;0.80;0.68;;;25.10;58.20;;;;;;6026033;28;21202;-51
2022/06/21 13:16:33;;;;;;;0.63;0.57;;;25.20;58.30;;;;;;6054442;28;20035;-50
2022/06/21 13:19:50;;;;;;;0.82;0.80;;;25.20;58.20;;;;;;6018715;28;20176;-49
2022/06/21 13:23:02;;;;;;;0.60;0.60;;;25.30;58.30;;;;;;6067333;28;20172;-53
2022/06/21 13:26:13;;;;;;;0.47;0.47;;;25.30;58.20;;;;;;6048801;28;20043;-54
2022/06/21 13:29:22;;;;;;;1.05;0.70;;;25.10;58.10;;;;;;6037252;28;20048;-48
2022/06/21 13:32:33;;;;;;;1.95;0.60;;;25.20;58.10;;;;;;6048627;28;20036;-47
2022/06/21 13:35:47;;;;;;;0.55;0.50;;;25.30;58.20;;;;;;6049184;28;20043;-51
2022/06/21 13:38:54;;;;;;;1.05;0.77;;;25.30;58.20;;;;;;6061396;28;21304;-53
2022/06/21 13:45:38;;;;;;;0.82;0.75;;;25.30;58.10;;;;;;6066779;28;20048;-50
2022/06/21 13:48:50;;;;;;;0.70;0.60;;;25.30;58.20;;;;;;6063485;28;20040;-53
2022/06/21 13:51:58;;;;;;;0.73;0.70;;;25.20;58.10;;;;;;6068153;28;22044;-51
2022/06/21 13:55:05;;;;;;;0.80;0.70;;;25.30;58.20;;;;;;6084203;28;22072;-52
2022/06/21 13:58:20;;;;;;;1.48;0.70;;;25.20;58.20;;;;;;6080900;28;20186;-56
2022/06/21 14:01:28;;;;;;;1.85;0.55;;;25.20;58.30;;;;;;6062451;28;20039;-50
2022/06/21 14:04:44;;;;;;;0.88;0.60;;;25.30;58.30;;;;;;6042357;28;20044;-52
2022/06/21 14:07:53;;;;;;;0.82;0.70;;;25.30;58.30;;;;;;6062786;28;20051;-53
2022/06/21 14:11:02;;;;;;;1.95;0.70;;;25.30;58.30;;;;;;6078780;28;20043;-54
2022/06/21 14:14:15;;;;;;;0.80;0.68;;;25.30;58.90;;;;;;6091615;28;20051;-54
2022/06/21 14:17:27;;;;;;;0.98;0.63;;;25.30;58.30;;;;;;6099342;28;20696;-56
2022/06/21 14:20:36;;;;;;;0.65;0.65;;;25.30;58.30;;;;;;6109191;28;24996;-52
2022/06/21 14:23:47;;;;;;;0.73;0.52;;;25.30;58.30;;;;;;6079092;28;20047;-56
2022/06/21 14:26:55;;;;;;;1.05;0.60;;;25.30;58.40;;;;;;6085649;28;20079;-50
2022/06/21 14:30:03;;;;;;;0.63;0.60;;;25.20;58.30;;;;;;6082823;28;22799;-52
2022/06/21 14:33:10;;;;;;;0.88;0.77;;;25.30;58.30;;;;;;6067411;28;20120;-55
2022/06/21 14:36:23;;;;;;;0.80;0.70;;;25.30;58.30;;;;;;6094071;27;20047;-54
2022/06/21 14:39:33;;;;;;;1.20;0.70;;;25.30;58.30;;;;;;6057582;28;26921;-53
2022/06/21 14:42:42;;;;;;;0.95;0.65;;;25.50;58.50;;;;;;6069712;28;20043;-53
2022/06/21 14:45:52;;;;;;;2.10;0.50;;;25.30;58.30;;;;;;6055221;28;20041;-52
2022/06/21 14:48:59;;;;;;;0.77;0.70;;;25.40;58.40;;;;;;6062184;28;20032;-53
2022/06/21 14:52:34;;;;;;;0.50;0.47;;;25.30;58.30;;;;;;6064251;28;20174;-55
2022/06/21 14:55:42;;;;;;;0.90;0.55;;;25.40;58.30;;;;;;6073175;27;20179;-54
2022/06/21 14:59:19;;;;;;;0.70;0.50;;;25.30;58.30;;;;;;6060606;28;20052;-51
2022/06/21 15:03:00;;;;;;;0.55;0.50;;;25.30;58.20;;;;;;6038217;28;20072;-54
2022/06/21 15:06:11;;;;;;;0.60;0.60;;;25.30;58.20;;;;;;6015023;28;20115;-53
2022/06/21 15:09:18;;;;;;;1.48;0.60;;;25.30;58.20;;;;;;6079242;28;20036;-53
2022/06/21 15:12:23;;;;;;;0.63;0.60;;;25.30;58.10;;;;;;6102247;28;20637;-52
2022/06/21 15:15:27;;;;;;;0.70;0.70;;;25.40;58.10;;;;;;6117989;27;20047;-54
2022/06/21 15:18:33;;;;;;;0.75;0.52;;;25.30;58.50;;;;;;6083854;28;20315;-53
2022/06/21 15:21:37;;;;;;;0.60;0.50;;;25.30;58.10;;;;;;6089681;28;20910;-54
2022/06/21 15:24:38;;;;;;;0.70;0.60;;;25.20;58.10;;;;;;6091682;28;20059;-53
2022/06/21 15:27:47;;;;;;;1.45;0.85;;;25.30;58.10;;;;;;6101844;28;20054;-55
2022/06/21 15:30:53;;;;;;;1.58;1.10;;;25.30;58.10;;;;;;6106047;28;20086;-56
2022/06/21 15:34:17;;;;;;;4.18;0.90;;;25.30;58.10;;;;;;6107175;28;37387;-51
2022/06/21 15:37:26;;;;;;;1.48;0.85;;;25.30;58.10;;;;;;6117584;28;21486;-56
2022/06/21 15:40:32;;;;;;;1.15;0.82;;;25.30;58.10;;;;;;6117995;28;20146;-53
2022/06/21 15:43:37;;;;;;;1.13;0.90;;;25.20;58.00;;;;;;6122928;28;20171;-55
2022/06/21 15:46:41;;;;;;;0.70;0.70;;;25.20;58.00;;;;;;6123208;28;20055;-56
2022/06/21 15:53:18;;;;;;;0.85;0.60;;;25.30;58.00;;;;;;6135546;28;20074;-50
2022/06/21 15:56:25;;;;;;;1.02;0.80;;;25.30;58.00;;;;;;6144914;28;22170;-54
2022/06/21 15:59:38;;;;;;;1.60;0.90;;;25.30;58.00;;;;;;6153570;28;20042;-54
2022/06/21 16:02:48;;;;;;;0.70;0.70;;;25.30;58.10;;;;;;6147943;28;20047;-52
2022/06/21 16:05:57;;;;;;;0.77;0.63;;;25.30;58.20;;;;;;6161105;28;20090;-51
2022/06/21 16:09:01;;;;;;;0.80;0.60;;;25.30;58.30;;;;;;6164337;28;20172;-53
2022/06/21 16:12:06;;;;;;;1.52;0.65;;;25.30;58.40;;;;;;6161155;28;20044;-55
2022/06/21 16:15:12;;;;;;;0.80;0.57;;;25.30;58.70;;;;;;6179543;28;21412;-54
2022/06/21 16:18:15;;;;;;;0.90;0.65;;;25.30;58.90;;;;;;6163979;28;22126;-49
2022/06/21 16:21:27;;;;;;;0.73;0.63;;;25.20;59.00;;;;;;6182051;28;20048;-51
2022/06/21 16:24:38;;;;;;;0.90;0.68;;;25.20;59.30;;;;;;6182225;28;20168;-49
2022/06/21 16:27:43;;;;;;;0.70;0.70;;;25.30;59.60;;;;;;6204768;28;20038;-47
2022/06/21 16:34:21;;;;;;;0.60;0.50;;;25.20;59.90;;;;;;6194363;28;20064;-48
2022/06/21 16:37:27;;;;;;;0.90;0.80;;;25.20;60.00;;;;;;6203887;28;20132;-51
2022/06/21 16:43:55;;;;;;;0.60;0.60;;;25.20;60.90;;;;;;6218141;28;21013;-50
2022/06/21 16:47:04;;;;;;;0.60;0.60;;;25.10;61.40;;;;;;6233153;28;20043;-48
2022/06/21 16:50:25;;;;;;;1.25;0.70;;;25.10;61.90;;;;;;6232535;28;20052;-50
2022/06/21 16:53:30;;;;;;;0.70;0.60;;;25.10;62.70;;;;;;6238664;28;20047;-52
2022/06/21 16:56:41;;;;;;;1.15;0.70;;;25.20;62.90;;;;;;6243032;28;21102;-47
2022/06/21 16:59:45;;;;;;;0.70;0.70;;;25.10;63.50;;;;;;6247751;28;20051;-47
2022/06/21 17:02:48;;;;;;;0.90;0.82;;;25.00;63.70;;;;;;6230663;28;20050;-47